Kihei, HI

4:57 AM HST on November 27, 2014 (GMT -1000)
Kahului | Change Station
CLOSE
Current Station
Airport
Location: Kahului,
Elevation: 49 ft
Nearby Weather Stations
Active Advisory: High Surf Advisory, Wind Advisory

Elev 49 ft 20.90 °N, 156.43 °W | Updated 14 minutes ago

Mostly Cloudy
Mostly Cloudy
72 °F
Feels Like 72 °F
N
13
Wind Variable Wind from NE
Gusts 17 mph

Today
High -- | Low -- °F
--% Chance of Precip.
Yesterday
High -- | Low -- °F
Precip. -- in
6:43 AM 5:43 PM
Waxing Crescent, 30% visible
Pressure 30.06 in
Visibility 10.0 miles
Clouds Scattered Clouds 2300 ft
Mostly Cloudy 3500 ft
Dew Point 64 °F
Humidity 78%
Rainfall 0.00 in
Snow Depth Not available.
UV 0 out of 12
Pollen Not available.
Air Quality Not available.
Flu Activity Not available.
SPECI PHOG 271443Z AUTO 05011G15KT 10SM SCT023 BKN035 22/18 A3006 RMK AO2 RAB08E28 P0001 TSNO $

More Conditions Fewer Conditions

Pressure 30.06 in
Visibility 10.0 miles
Clouds Scattered Clouds 2300 ft
Mostly Cloudy 3500 ft
Dew Point 64 °F
Humidity 78%
Rainfall 0.00 in
Snow Depth Not available.
UV 0 out of 12
Pollen Not available.
Air Quality Not available.
Flu Activity Not available.
SPECI PHOG 271443Z AUTO 05011G15KT 10SM SCT023 BKN035 22/18 A3006 RMK AO2 RAB08E28 P0001 TSNO $

More Conditions Fewer Conditions

10-Day Weather Forecast

Almanac

Astronomy

Nov. 27, 2014 Rise Set
Actual Time
Civil Twilight
Nautical Twilight
Astronomical Twilight
Moon
Length of Visible Light
Length of Day
Tomorrow will be .
, % of the Moon is Illuminated

Today's Extremes

State Highs State Lows

Community

WunderPhotos

Upload Photos

1,774,005 photos uploaded!

WunderBlogs® & News

Nearby

Air Quality

  Air Quality AQ Index Pollutant
Not available.

Snow Depth

Station Depth Elevation

Earthquake Activity

City Distance Mag. Time & Date
Minimum magnitude displayed is 2.5.

Coastal Water Temperatures

Place Temperature

Nearby Weather Stations